Detailed System and Site Information

System Data Health
Measure Timestamp Ago Health
Web Server Live 01:35:18, 23rd December 2014 0 s health
Last live-data upload from local system (nw3) 01:35:14, 23rd December 2014 4 s health
Last upload of secondary data 01:00:27, 23rd December 2014 35 mins health
Latest Webcam upload 01:34:08, 23rd December 2014 70 s health
Last upload of 24hr data log 01:34:08, 23rd December 2014 70 s health
Last full data process 01:35:02, 23rd December 2014 16 s health
Last data downtime (>15 mins) 08:01:01, 19th November 2014 34 days
Local System and Site Information
Measure Value
WD Version & Build # 10.37R - 40
WD Start Time 08:13 19/11/14
WD Data Count 1003594
WD Memory Use 100,300 K
--- ---
Windows Uptime 33 Days 16 Hours 47 Minutes 35 Seconds
Free System Memory 2439 MB (Max: 4GB)
--- ---
Station Altitude 57 m (187 ft)
Station Latitude 51.556
Station Longitude -0.154
Machine Room Conditions
Measure Value
Temperature 20.7 °C
Temperature Trend +0.0 °C /hr
Relative Humidity 42%
Dew Point 7.3 °C
--- ---
Tmin Today 20.6 °C at 00:23
Tmax Today 20.8 °C at 00:27
Hmin Today 42% at 00:00
Hmax Today 43% at 00:32
Tmin Yesterday 19.5 °C at 17:14
Tmax Yesterday 22.1 °C at 08:56

Site owner and administrator: Ben Lee-Rodgers (2010 - present)

Last 10hrs Temp/Hum for Secondary Sensor and Indoors

Extra Sensors/Indoor

Other

Raw METAR from EGLL (Heathrow)

EGLL 230120Z AUTO 24017KT 9999 BKN034 11/07 Q1018
Decode Instructions
Source

WD Screenshot

not available